Tropical Cyclones
[Index]
Main Index Home Page Stock Weather Photos Extreme Storms Discussion Storm News and Storm Chasing Reports Tropical Cyclones / Hurricanes / Typhoons Weather Data and Links Wild Fires / Bushfires Weather Observation Techniques Weather Picture Catalogue Tornado Pictures and Reports Stock Video Footage and DVDs for sale
Season 2000-2001 Tropical Cyclone SAM Track Map
Season 2000-2001 Summaries (Operational Data): [AU] [SIO] [SPAC] [SH]
<<- Previous TC | 2000-2001 Season | Next TC ->>

click for intensity scale information  Lat/long Grid: Show Hide

 Date Labels: Show Hide

Operational Tropical Cyclone Data : JTWC Advisories

Name: SAM
Number: 0103

02 Dec 2000 06:00 UTC to 10 Dec 2000 12:00 UTC

    date/time    lat    long     hPa   cat  kts
2000-12-02 06   10.5   127.0    1000         30          
2000-12-02 12   10.5   126.0    1000         30          
2000-12-02 18   11.0   126.0     999         30          
2000-12-03 00   12.0   127.0     999         30          
2000-12-03 06   13.0   127.0     999         30          
2000-12-03 12   12.5   128.0     998         30          
2000-12-03 18   13.8   128.0     997         30          
2000-12-04 00   14.0   127.0     997         30          
2000-12-04 06   15.0   126.0     995         30          
2000-12-04 12   16.0   125.0     996         30          
2000-12-04 18   14.7   125.0     995         30          
2000-12-04 22   14.7   124.0     995         30          
2000-12-05 04   14.3   124.0     993    1    45          
2000-12-05 10   14.4   123.0     990    1    45          
2000-12-05 16   14.5   123.0     985    1    45          
2000-12-05 22   14.8   122.0     980    2    55          
2000-12-06 04   14.7   121.0     975    2    55          
2000-12-06 10   15.2   121.0     975    2    50          
2000-12-06 16   15.7   121.0     975    2    50          
2000-12-06 22   16.7   121.0     980    2    60          
2000-12-07 04   17.1   121.0     970    3    70          
2000-12-07 10   17.7   121.0     960    3    75          
2000-12-07 16   17.8   120.0     930    4    95          
2000-12-07 22   17.9   120.0     925    4   105          
2000-12-08 04   18.1   121.0     925    4   105          
2000-12-08 10   18.6   121.0     925    4   105          
2000-12-08 16   19.2   121.0     925    4   105          
2000-12-08 22   19.5   122.0     960    3    75          
2000-12-09 04   20.1   122.0     975    2    60          
2000-12-09 10   20.6   123.0     984    2    50          
2000-12-09 13   20.9   123.0     988    1    40          
2000-12-10 00   21.3   124.0     992    1    40          
2000-12-10 06   21.6   124.0     995    1    35          
2000-12-10 12   21.7   125.0     996    1    35          
Winds are 10-min average.

Tropical cyclone tracks developed by Michael Bath using operational warnings and advisories and Google Maps.


[Australian Severe Weather index] [Copyright Notice] [Email Contacts] [Search This Site] [Privacy Policy]
Document: tropical_cyclone_sam.htm Updated: 28 May 2013